| time (UTC) | temp F | wind direction | speed knots | gust knots | rain 1hr in | rain 24hr in | rain mn in | humidity % | barometer mb |
| 20260503190030 | 58 | 252 | 1.7 | 11.3 | 0.00 | 0.00 | 0.00 | 25 | 1012.3 |
| 20260503184534 | 58 | 124 | 0.9 | 11.3 | 0.00 | 0.00 | 0.00 | 26 | 1012.4 |
| 20260503183040 | 57 | 295 | 2.6 | 9.6 | 0.00 | 0.00 | 0.00 | 37 | 1012.6 |
| 20260503181530 | 56 | 293 | 3.5 | 11.3 | 0.00 | 0.00 | 0.00 | 37 | 1012.7 |
| 20260503180035 | 57 | 311 | 2.6 | 13.0 | 0.00 | 0.00 | 0.00 | 31 | 1012.8 |
| 20260503174538 | 56 | 311 | 2.6 | 11.3 | 0.00 | 0.00 | 0.00 | 41 | 1012.8 |
| 20260503173031 | 54 | 253 | 1.7 | 7.8 | 0.00 | 0.00 | 0.00 | 41 | 1012.9 |
| 20260503171534 | 53 | 33 | 4.3 | 9.6 | 0.00 | 0.00 | 0.00 | 33 | 1013.1 |
| 20260503081543 | 43 | 0 | 0.0 | 0.9 | 0.00 | 0.00 | 0.00 | 53 | 1011.1 |
| 20260503071548 | 45 | 0 | 0.0 | 0.0 | 0.00 | 0.00 | 0.00 | 51 | 1011.1 |
| 20260503054535 | 48 | 0 | 0.0 | 1.7 | 0.00 | 0.00 | 0.00 | 44 | 1011.4 |
| 20260503053028 | 48 | 257 | 0.0 | 2.6 | 0.00 | 0.00 | 0.00 | 44 | 1011.2 |
| 20260503051542 | 48 | 0 | 0.0 | 1.7 | 0.00 | 0.00 | 0.00 | 46 | 1011.4 |
| 20260503050028 | 48 | 0 | 0.0 | 0.9 | 0.00 | 0.00 | 0.00 | 44 | 1011.4 |
| 20260503044528 | 48 | 0 | 0.0 | 1.7 | 0.00 | 0.00 | 0.00 | 44 | 1011.7 |
| 20260503043027 | 49 | 321 | 0.0 | 1.7 | 0.00 | 0.00 | 0.00 | 43 | 1011.8 |
| 20260503041532 | 49 | 0 | 0.0 | 1.7 | 0.00 | 0.00 | 0.00 | 43 | 1011.6 |
| 20260503040028 | 49 | 297 | 0.0 | 1.7 | 0.00 | 0.00 | 0.00 | 43 | 1011.8 |
| 20260503034528 | 49 | 0 | 0.0 | 2.6 | 0.00 | 0.00 | 0.00 | 44 | 1011.9 |
| 20260503033030 | 49 | 317 | 0.0 | 1.7 | 0.00 | 0.00 | 0.00 | 44 | 1011.7 |
| 20260503031532 | 50 | 0 | 0.0 | 2.6 | 0.00 | 0.00 | 0.00 | 43 | 1011.6 |
| 20260503030035 | 50 | 311 | 0.0 | 1.7 | 0.00 | 0.00 | 0.00 | 43 | 1011.9 |
| 20260503024535 | 50 | 0 | 0.0 | 0.9 | 0.00 | 0.00 | 0.00 | 42 | 1011.7 |
| 20260503023028 | 51 | 0 | 0.0 | 2.6 | 0.00 | 0.00 | 0.00 | 40 | 1011.8 |
| 20260503021532 | 52 | 300 | 0.9 | 5.2 | 0.00 | 0.00 | 0.00 | 49 | 1011.8 |
| 20260503020027 | 52 | 279 | 0.9 | 3.5 | 0.00 | 0.00 | 0.00 | 40 | 1011.8 |
| 20260503014527 | 52 | 309 | 0.9 | 5.2 | 0.00 | 0.00 | 0.00 | 40 | 1011.6 |
| 20260503013034 | 52 | 312 | 0.0 | 3.5 | 0.00 | 0.00 | 0.00 | 40 | 1011.6 |
| 20260503011528 | 53 | 0 | 0.0 | 2.6 | 0.00 | 0.00 | 0.00 | 40 | 1011.8 |
| 20260503010031 | 53 | 309 | 0.0 | 1.7 | 0.00 | 0.00 | 0.00 | 39 | 1011.6 |
| 20260503004533 | 53 | 323 | 0.0 | 1.7 | 0.00 | 0.00 | 0.00 | 38 | 1011.4 |
| 20260503003036 | 53 | 0 | 0.0 | 1.7 | 0.00 | 0.00 | 0.00 | 37 | 1011.2 |
| 20260503001529 | 54 | 324 | 0.0 | 1.7 | 0.00 | 0.00 | 0.00 | 36 | 1011.0 |
| 20260503000028 | 55 | 0 | 0.0 | 2.6 | 0.00 | 0.00 | 0.00 | 35 | 1011.2 |
| 20260502234533 | 55 | 0 | 0.9 | 4.3 | 0.00 | 0.00 | 0.00 | 33 | 1011.0 |
| 20260502233027 | 56 | 323 | 0.0 | 4.3 | 0.00 | 0.00 | 0.00 | 34 | 1010.9 |
| 20260502231530 | 56 | 0 | 0.0 | 0.9 | 0.00 | 0.00 | 0.00 | 34 | 1011.0 |
| 20260502230032 | 57 | 0 | 0.0 | 1.7 | 0.00 | 0.00 | 0.00 | 32 | 1010.9 |
| 20260502224530 | 57 | 257 | 0.0 | 4.3 | 0.00 | 0.00 | 0.00 | 42 | 1011.0 |
| 20260502223028 | 58 | 253 | 0.0 | 5.2 | 0.00 | 0.00 | 0.00 | 31 | 1010.8 |
| 20260502221528 | 58 | 0 | 0.0 | 3.5 | 0.00 | 0.00 | 0.00 | 31 | 1010.7 |
| 20260502220027 | 58 | 312 | 0.0 | 5.2 | 0.00 | 0.00 | 0.00 | 30 | 1010.8 |
| 20260502214529 | 60 | 0 | 0.0 | 6.1 | 0.00 | 0.00 | 0.00 | 41 | 1010.8 |
| 20260502213038 | 60 | 278 | 0.9 | 4.3 | 0.00 | 0.00 | 0.00 | 43 | 1010.7 |
| 20260502211532 | 58 | 288 | 0.0 | 4.3 | 0.00 | 0.00 | 0.00 | 41 | 1010.6 |
| 20260502210028 | 59 | 302 | 0.0 | 4.3 | 0.00 | 0.00 | 0.00 | 43 | 1010.6 |
| 20260502204529 | 59 | 309 | 0.0 | 2.6 | 0.00 | 0.00 | 0.00 | 44 | 1010.4 |
| 20260502203030 | 60 | 0 | 0.9 | 7.0 | 0.00 | 0.00 | 0.00 | 43 | 1010.6 |
| 20260502201536 | 60 | 347 | 0.9 | 6.1 | 0.00 | 0.00 | 0.00 | 32 | 1010.5 |
| 20260502200027 | 61 | 270 | 0.9 | 5.2 | 0.00 | 0.00 | 0.00 | 40 | 1010.7 |
| 20260502194530 | 62 | 0 | 0.9 | 5.2 | 0.00 | 0.00 | 0.00 | 28 | 1010.9 |
| 20260502193029 | 61 | 246 | 0.9 | 7.0 | 0.00 | 0.00 | 0.00 | 43 | 1011.2 |
| 20260502191535 | 62 | 303 | 1.7 | 5.2 | 0.00 | 0.00 | 0.00 | 34 | 1011.5 |